createdAt,value
2019-02-10T00:01:03.653Z,9.70
2019-02-10T00:03:32.246Z,9.70
2019-02-10T00:06:01.251Z,9.70
2019-02-10T00:08:29.961Z,9.80
2019-02-10T00:10:58.839Z,9.80
2019-02-10T00:13:32.600Z,9.70
2019-02-10T00:16:04.298Z,9.70
2019-02-10T00:18:33.090Z,9.70
2019-02-10T00:21:01.762Z,9.70
2019-02-10T00:23:30.564Z,9.70
2019-02-10T00:25:59.060Z,9.70
2019-02-10T00:28:27.846Z,9.70
2019-02-10T00:30:56.265Z,9.80
2019-02-10T00:33:24.700Z,9.70
2019-02-10T00:35:53.354Z,9.70
2019-02-10T00:38:21.786Z,9.60
2019-02-10T00:40:50.530Z,9.60
2019-02-10T00:43:18.980Z,9.60
2019-02-10T00:45:47.785Z,9.60
2019-02-10T00:48:16.575Z,9.70
2019-02-10T00:50:44.982Z,9.70
2019-02-10T00:53:13.425Z,9.70
2019-02-10T00:55:41.835Z,9.60
2019-02-10T00:58:10.261Z,9.60
2019-02-10T01:00:38.997Z,9.70
2019-02-10T01:03:07.816Z,9.70
2019-02-10T01:05:36.218Z,9.70
2019-02-10T01:08:04.900Z,9.70
2019-02-10T01:10:33.336Z,9.70
2019-02-10T01:13:01.752Z,9.80
2019-02-10T01:15:30.499Z,9.70
2019-02-10T01:17:58.980Z,9.70
2019-02-10T01:20:27.745Z,9.80
2019-02-10T01:22:56.223Z,9.80
2019-02-10T01:25:25.134Z,9.80
2019-02-10T01:27:53.794Z,9.70
2019-02-10T01:30:22.315Z,9.70
2019-02-10T01:32:51.073Z,9.70
2019-02-10T01:35:19.869Z,9.70
2019-02-10T01:37:48.372Z,9.70
2019-02-10T01:40:17.134Z,9.70
2019-02-10T01:42:46.018Z,9.80
2019-02-10T01:45:14.819Z,9.80
2019-02-10T01:47:43.214Z,9.70
2019-02-10T01:50:12.097Z,9.80
2019-02-10T01:52:40.513Z,9.80
2019-02-10T01:55:12.027Z,9.80
2019-02-10T01:57:40.514Z,9.80
2019-02-10T02:00:12.290Z,9.90
2019-02-10T02:02:40.853Z,9.90
2019-02-10T02:05:10.446Z,9.90
2019-02-10T02:07:38.923Z,9.90
2019-02-10T02:10:14.874Z,10.00
2019-02-10T02:12:43.402Z,9.90
2019-02-10T02:15:16.035Z,9.90
2019-02-10T02:17:44.590Z,9.90
2019-02-10T02:20:14.209Z,9.90
2019-02-10T02:22:48.289Z,9.90
2019-02-10T02:25:16.725Z,9.90
2019-02-10T02:27:45.505Z,9.90
2019-02-10T02:30:17.018Z,9.90
2019-02-10T02:32:45.848Z,9.90
2019-02-10T02:35:14.642Z,9.80
2019-02-10T02:37:43.516Z,9.80
2019-02-10T02:40:12.130Z,9.80
2019-02-10T02:42:41.106Z,9.90
2019-02-10T02:45:11.657Z,9.90
2019-02-10T02:47:40.842Z,9.90
2019-02-10T02:50:11.352Z,9.80
2019-02-10T02:52:40.148Z,9.80
2019-02-10T02:55:11.505Z,9.80
2019-02-10T02:57:40.155Z,9.80
2019-02-10T03:00:10.641Z,9.70
2019-02-10T03:02:39.293Z,9.80
2019-02-10T03:05:09.640Z,9.80
2019-02-10T03:07:38.155Z,9.80
2019-02-10T03:10:11.541Z,9.70
2019-02-10T03:12:39.958Z,9.70
2019-02-10T03:15:09.249Z,9.50
2019-02-10T03:17:37.652Z,9.50
2019-02-10T03:20:08.126Z,9.50
2019-02-10T03:22:36.602Z,9.50
2019-02-10T03:25:06.500Z,9.60
2019-02-10T03:27:34.920Z,9.60
2019-02-10T03:30:04.589Z,9.70
2019-02-10T03:32:33.055Z,9.70
2019-02-10T03:35:01.824Z,9.70
2019-02-10T03:37:30.512Z,9.70
2019-02-10T03:39:58.996Z,9.70
2019-02-10T03:42:27.643Z,9.70
2019-02-10T03:44:56.081Z,9.70
2019-02-10T03:47:24.488Z,9.60
2019-02-10T03:49:53.210Z,9.60
2019-02-10T03:52:21.622Z,9.60
2019-02-10T03:54:50.063Z,9.50
2019-02-10T03:57:18.646Z,9.50
2019-02-10T03:59:47.149Z,9.40
2019-02-10T04:02:15.910Z,9.40
2019-02-10T04:04:44.342Z,9.40
2019-02-10T04:07:12.752Z,9.40
2019-02-10T04:09:41.198Z,9.30
2019-02-10T04:12:09.931Z,9.30
2019-02-10T04:14:38.729Z,9.30
2019-02-10T04:17:07.158Z,9.30
2019-02-10T04:19:37.246Z,9.30
2019-02-10T04:22:05.654Z,9.30
2019-02-10T04:24:34.391Z,9.40
2019-02-10T04:27:02.790Z,9.40
2019-02-10T04:29:31.562Z,9.40
2019-02-10T04:31:59.973Z,9.30
2019-02-10T04:34:28.410Z,9.20
2019-02-10T04:36:57.114Z,9.20
2019-02-10T04:39:25.892Z,9.20
2019-02-10T04:41:54.568Z,9.20
2019-02-10T04:44:23.079Z,9.20
2019-02-10T04:46:51.488Z,9.20
2019-02-10T04:49:19.934Z,9.20
2019-02-10T04:51:48.343Z,9.20
2019-02-10T04:54:17.090Z,9.20
2019-02-10T04:56:45.490Z,9.20
2019-02-10T04:59:13.979Z,9.20
2019-02-10T05:01:42.720Z,9.20
2019-02-10T05:04:11.345Z,9.20
2019-02-10T05:06:40.305Z,9.20
2019-02-10T05:09:08.988Z,9.20
2019-02-10T05:11:37.399Z,9.20
2019-02-10T05:14:06.368Z,9.20
2019-02-10T05:16:34.782Z,9.20
2019-02-10T05:19:03.475Z,9.20
2019-02-10T05:21:32.207Z,9.10
2019-02-10T05:24:03.619Z,9.10
2019-02-10T05:26:31.050Z,9.10
2019-02-10T05:28:59.454Z,9.10
2019-02-10T05:31:28.221Z,9.10
2019-02-10T05:33:56.621Z,9.10
2019-02-10T05:36:25.353Z,9.10
2019-02-10T05:38:53.964Z,9.10
2019-02-10T05:41:22.718Z,9.10
2019-02-10T05:43:51.351Z,9.10
2019-02-10T05:46:20.087Z,9.10
2019-02-10T05:48:48.783Z,9.10
2019-02-10T05:51:18.169Z,9.10
2019-02-10T05:53:46.571Z,9.10
2019-02-10T05:56:15.120Z,9.10
2019-02-10T05:58:43.529Z,9.10
2019-02-10T06:01:48.788Z,9.10
2019-02-10T06:04:17.327Z,9.10
2019-02-10T06:06:45.783Z,9.10
2019-02-10T06:09:14.229Z,9.10
2019-02-10T06:11:42.678Z,9.10
2019-02-10T06:14:11.087Z,9.10
2019-02-10T06:16:39.847Z,9.10
2019-02-10T06:19:08.420Z,9.20
2019-02-10T06:21:36.973Z,9.20
2019-02-10T06:24:05.693Z,9.20
2019-02-10T06:26:34.137Z,9.20
2019-02-10T06:29:02.866Z,9.20
2019-02-10T06:31:31.309Z,9.10
2019-02-10T06:33:59.706Z,9.10
2019-02-10T06:36:28.412Z,9.00
2019-02-10T06:38:56.822Z,9.00
2019-02-10T06:41:25.266Z,9.00
2019-02-10T06:43:53.943Z,9.00
2019-02-10T06:46:22.422Z,9.00
2019-02-10T06:48:51.112Z,9.00
2019-02-10T06:51:19.739Z,9.00
2019-02-10T06:53:48.474Z,8.90
2019-02-10T06:56:17.267Z,8.90
2019-02-10T06:58:45.692Z,8.90
2019-02-10T07:01:24.778Z,8.90
2019-02-10T07:03:57.386Z,8.90
2019-02-10T07:06:26.144Z,8.90
2019-02-10T07:08:54.593Z,8.90
2019-02-10T07:11:23.037Z,9.00
2019-02-10T07:13:54.143Z,9.00
2019-02-10T07:16:28.346Z,9.00
2019-02-10T07:19:33.250Z,9.10
2019-02-10T07:22:04.645Z,9.10
2019-02-10T07:24:39.359Z,9.10
2019-02-10T07:27:20.028Z,9.10
2019-02-10T07:29:54.775Z,9.00
2019-02-10T07:32:26.055Z,9.00
2019-02-10T07:34:57.539Z,9.00
2019-02-10T07:37:29.054Z,9.10
2019-02-10T07:40:00.899Z,9.10
2019-02-10T07:42:40.642Z,9.20
2019-02-10T07:45:15.453Z,9.20
2019-02-10T07:48:17.350Z,9.30
2019-02-10T07:50:51.460Z,9.30
2019-02-10T07:53:22.986Z,9.40
2019-02-10T07:56:11.215Z,9.40
2019-02-10T07:59:08.675Z,9.40
2019-02-10T08:01:45.978Z,9.40
2019-02-10T08:04:40.654Z,9.40
2019-02-10T08:07:12.410Z,9.40
2019-02-10T08:10:12.534Z,9.40
2019-02-10T08:13:00.603Z,9.40
2019-02-10T08:15:38.239Z,9.50
2019-02-10T08:18:21.581Z,9.50
2019-02-10T08:20:53.457Z,9.60
2019-02-10T08:23:33.965Z,9.60
2019-02-10T08:26:17.716Z,9.60
2019-02-10T08:28:58.071Z,9.60
2019-02-10T08:31:55.071Z,9.60
2019-02-10T08:34:32.339Z,9.60
2019-02-10T08:37:19.186Z,9.50
2019-02-10T08:39:50.669Z,9.50
2019-02-10T08:42:22.445Z,9.50
2019-02-10T08:45:18.437Z,9.50
2019-02-10T08:47:59.189Z,9.50
2019-02-10T08:50:39.542Z,9.50
2019-02-10T08:53:14.120Z,9.40
2019-02-10T08:55:42.834Z,9.50
2019-02-10T08:58:11.631Z,9.50
2019-02-10T09:00:40.413Z,9.50
2019-02-10T09:03:10.751Z,9.50
2019-02-10T09:05:39.082Z,9.50
2019-02-10T09:08:07.810Z,9.50
2019-02-10T09:10:36.250Z,9.50
2019-02-10T09:13:05.068Z,9.50
2019-02-10T09:15:33.758Z,9.60
2019-02-10T09:18:02.581Z,9.60
2019-02-10T09:20:31.114Z,9.60
2019-02-10T09:22:59.809Z,9.60
2019-02-10T09:25:28.589Z,9.60
2019-02-10T09:27:57.310Z,9.60
2019-02-10T09:30:25.775Z,9.70
2019-02-10T09:32:54.458Z,9.70
2019-02-10T09:35:22.903Z,9.80
2019-02-10T09:37:51.310Z,9.80
2019-02-10T09:40:20.100Z,9.80
2019-02-10T09:42:48.808Z,9.80
2019-02-10T09:45:17.237Z,9.90
2019-02-10T09:47:45.957Z,9.90
2019-02-10T09:50:16.841Z,9.90
2019-02-10T09:52:45.334Z,10.00
2019-02-10T09:55:13.773Z,10.00
2019-02-10T09:57:42.189Z,10.00
2019-02-10T10:00:13.398Z,10.00
2019-02-10T10:02:41.891Z,10.00
2019-02-10T10:05:12.370Z,10.00
2019-02-10T10:07:41.053Z,10.00
2019-02-10T10:10:11.840Z,10.00
2019-02-10T10:12:40.693Z,10.10
2019-02-10T10:15:12.163Z,10.10
2019-02-10T10:17:41.023Z,10.10
2019-02-10T10:20:14.592Z,10.10
2019-02-10T10:22:43.046Z,10.10
2019-02-10T10:25:12.009Z,10.10
2019-02-10T10:27:40.439Z,10.10
2019-02-10T10:30:14.910Z,10.10
2019-02-10T10:32:43.482Z,10.10
2019-02-10T10:35:12.007Z,10.10
2019-02-10T10:37:40.765Z,10.20
2019-02-10T10:40:12.815Z,10.20
2019-02-10T10:42:41.706Z,10.20
2019-02-10T10:45:13.040Z,10.20
2019-02-10T10:47:41.562Z,10.20
2019-02-10T10:50:12.165Z,10.20
2019-02-10T10:52:40.647Z,10.10
2019-02-10T10:55:11.235Z,10.10
2019-02-10T10:57:39.972Z,10.10
2019-02-10T11:00:16.531Z,10.20
2019-02-10T11:02:44.952Z,10.10
2019-02-10T11:05:14.848Z,10.10
2019-02-10T11:07:43.596Z,10.20
2019-02-10T11:10:15.169Z,10.10
2019-02-10T11:12:43.847Z,10.10
2019-02-10T11:15:15.711Z,10.10
2019-02-10T11:17:44.340Z,10.10
2019-02-10T11:20:13.499Z,10.10
2019-02-10T11:22:42.116Z,10.10
2019-02-10T11:25:13.569Z,10.10
2019-02-10T11:27:42.424Z,10.10
2019-02-10T11:30:13.570Z,10.10
2019-02-10T11:32:42.440Z,10.10
2019-02-10T11:35:11.110Z,10.10
2019-02-10T11:37:40.047Z,10.10
2019-02-10T11:40:13.107Z,10.10
2019-02-10T11:42:41.792Z,10.10
2019-02-10T11:45:14.874Z,10.10
2019-02-10T11:47:43.568Z,10.10
2019-02-10T11:50:13.369Z,10.10
2019-02-10T11:52:41.830Z,10.10
2019-02-10T11:55:11.220Z,10.10
2019-02-10T11:57:39.651Z,10.10
2019-02-10T12:00:16.287Z,10.20
2019-02-10T12:02:44.702Z,10.20
2019-02-10T12:05:13.700Z,10.20
2019-02-10T12:07:42.465Z,10.20
2019-02-10T12:10:13.984Z,10.30
2019-02-10T12:12:42.701Z,10.20
2019-02-10T12:15:15.462Z,10.20
2019-02-10T12:17:43.914Z,10.30
2019-02-10T12:20:15.799Z,10.20
2019-02-10T12:22:49.838Z,10.30
2019-02-10T12:25:14.761Z,10.30
2019-02-10T12:27:43.734Z,10.30
2019-02-10T12:30:18.350Z,10.30
2019-02-10T12:32:47.139Z,10.30
2019-02-10T12:35:15.821Z,10.30
2019-02-10T12:37:44.267Z,10.30
2019-02-10T12:40:13.010Z,10.40
2019-02-10T12:42:41.668Z,10.40
2019-02-10T12:45:11.657Z,10.30
2019-02-10T12:47:40.077Z,10.30
2019-02-10T12:50:11.523Z,10.30
2019-02-10T12:52:40.118Z,10.40
2019-02-10T12:55:10.092Z,10.30
2019-02-10T12:57:38.511Z,10.40
2019-02-10T13:00:12.799Z,10.30
2019-02-10T13:02:41.497Z,10.30
2019-02-10T13:05:10.394Z,10.30
2019-02-10T13:07:39.187Z,10.30
2019-02-10T13:10:10.662Z,10.30
2019-02-10T13:12:39.089Z,10.20
2019-02-10T13:15:09.600Z,10.30
2019-02-10T13:17:38.528Z,10.20
2019-02-10T13:20:09.574Z,10.10
2019-02-10T13:22:38.069Z,10.10
2019-02-10T13:25:09.574Z,10.10
2019-02-10T13:27:38.067Z,10.00
2019-02-10T13:30:09.828Z,10.00
2019-02-10T13:32:38.254Z,10.00
2019-02-10T13:35:07.326Z,9.90
2019-02-10T13:37:36.110Z,9.90
2019-02-10T13:40:16.750Z,9.90
2019-02-10T13:42:42.545Z,9.80
2019-02-10T13:45:11.685Z,9.80
2019-02-10T13:47:40.365Z,9.70
2019-02-10T13:50:16.425Z,9.60
2019-02-10T13:52:44.936Z,9.70
2019-02-10T13:55:14.851Z,9.70
2019-02-10T13:57:43.431Z,9.70
2019-02-10T14:00:17.809Z,9.80
2019-02-10T14:02:46.653Z,9.90
2019-02-10T14:05:15.141Z,9.90
2019-02-10T14:07:45.694Z,9.80
2019-02-10T14:10:25.285Z,9.80
2019-02-10T14:12:49.251Z,9.70
2019-02-10T14:15:18.636Z,9.70
2019-02-10T14:17:47.328Z,9.60
2019-02-10T14:20:17.239Z,9.60
2019-02-10T14:22:45.652Z,9.60
2019-02-10T14:25:14.613Z,9.60
2019-02-10T14:27:43.042Z,9.50
2019-02-10T14:30:16.835Z,9.50
2019-02-10T14:32:45.112Z,9.60
2019-02-10T14:35:14.165Z,9.60
2019-02-10T14:37:42.951Z,9.60
2019-02-10T14:40:12.175Z,9.60
2019-02-10T14:42:40.936Z,9.60
2019-02-10T14:45:12.959Z,9.70
2019-02-10T14:47:41.781Z,9.60
2019-02-10T14:50:15.911Z,9.70
2019-02-10T14:52:44.689Z,9.70
2019-02-10T14:55:13.487Z,9.70
2019-02-10T14:57:42.261Z,9.60
2019-02-10T15:00:17.230Z,9.70
2019-02-10T15:02:45.988Z,9.70
2019-02-10T15:05:14.989Z,9.70
2019-02-10T15:07:43.399Z,9.60
2019-02-10T15:10:19.589Z,9.60
2019-02-10T15:12:48.385Z,9.70
2019-02-10T15:15:17.070Z,9.70
2019-02-10T15:17:45.766Z,9.70
2019-02-10T15:20:14.766Z,9.70
2019-02-10T15:22:43.208Z,9.70
2019-02-10T15:25:14.772Z,9.70
2019-02-10T15:27:43.332Z,9.70
2019-02-10T15:30:17.426Z,9.70
2019-02-10T15:32:45.839Z,9.70
2019-02-10T15:35:16.843Z,9.70
2019-02-10T15:37:45.257Z,9.70
2019-02-10T15:40:15.419Z,9.70
2019-02-10T15:42:44.088Z,9.60
2019-02-10T15:45:13.669Z,9.60
2019-02-10T15:47:42.155Z,9.70
2019-02-10T15:50:13.314Z,9.70
2019-02-10T15:52:41.735Z,9.70
2019-02-10T15:55:14.987Z,9.70
2019-02-10T15:57:43.686Z,9.60
2019-02-10T16:00:18.362Z,9.60
2019-02-10T16:02:47.097Z,9.60
2019-02-10T16:05:15.886Z,9.60
2019-02-10T16:07:44.667Z,9.50
2019-02-10T16:10:13.465Z,9.40
2019-02-10T16:12:41.880Z,9.40
2019-02-10T16:15:11.954Z,9.40
2019-02-10T16:17:40.642Z,9.40
2019-02-10T16:20:14.545Z,9.30
2019-02-10T16:22:43.227Z,9.30
2019-02-10T16:25:12.025Z,9.20
2019-02-10T16:27:40.413Z,9.10
2019-02-10T16:30:14.961Z,9.00
2019-02-10T16:32:49.664Z,9.00
2019-02-10T16:35:13.596Z,8.80
2019-02-10T16:37:42.426Z,8.80
2019-02-10T16:40:18.820Z,8.70
2019-02-10T16:42:47.566Z,8.60
2019-02-10T16:45:15.974Z,8.50
2019-02-10T16:47:44.389Z,8.40
2019-02-10T16:50:14.426Z,8.30
2019-02-10T16:52:43.120Z,8.30
2019-02-10T16:55:16.692Z,8.30
2019-02-10T16:57:45.403Z,8.20
2019-02-10T17:00:15.721Z,8.20
2019-02-10T17:02:44.730Z,8.20
2019-02-10T17:05:13.663Z,8.20
2019-02-10T17:07:42.134Z,8.20
2019-02-10T17:10:16.615Z,8.20
2019-02-10T17:12:45.038Z,8.30
2019-02-10T17:15:14.756Z,8.30
2019-02-10T17:17:43.585Z,8.30
2019-02-10T17:20:13.422Z,8.30
2019-02-10T17:22:41.821Z,8.40
2019-02-10T17:25:22.668Z,8.40
2019-02-10T17:27:51.087Z,8.50
2019-02-10T17:30:19.598Z,8.50
2019-02-10T17:32:48.296Z,8.50
2019-02-10T17:35:16.726Z,8.50
2019-02-10T17:37:45.147Z,8.40
2019-02-10T17:40:22.777Z,8.50
2019-02-10T17:42:51.437Z,8.40
2019-02-10T17:45:19.893Z,8.40
2019-02-10T17:47:48.614Z,8.30
2019-02-10T17:50:17.408Z,8.30
2019-02-10T17:52:46.192Z,8.20
2019-02-10T17:55:14.675Z,8.20
2019-02-10T17:57:43.357Z,8.30
2019-02-10T18:00:17.431Z,8.30
2019-02-10T18:02:46.138Z,8.20
2019-02-10T18:05:15.302Z,8.10
2019-02-10T18:07:43.711Z,8.00
2019-02-10T18:10:15.953Z,8.00
2019-02-10T18:12:44.394Z,7.90
2019-02-10T18:15:14.638Z,7.90
2019-02-10T18:18:03.360Z,7.80
2019-02-10T18:20:39.478Z,7.70
2019-02-10T18:23:09.532Z,7.50
2019-02-10T18:25:45.901Z,7.50
2019-02-10T18:28:18.991Z,7.40
2019-02-10T18:30:55.235Z,7.30
2019-02-10T18:33:30.990Z,7.20
2019-02-10T18:36:01.398Z,7.10
2019-02-10T18:38:37.298Z,6.90
2019-02-10T18:41:26.032Z,6.70
2019-02-10T18:44:02.062Z,6.50
2019-02-10T18:46:32.561Z,6.30
2019-02-10T18:49:05.129Z,6.20
2019-02-10T18:51:38.259Z,6.00
2019-02-10T18:54:20.695Z,6.10
2019-02-10T18:56:56.637Z,5.90
2019-02-10T18:59:30.700Z,5.90
2019-02-10T19:02:07.013Z,5.80
2019-02-10T19:04:46.195Z,5.80
2019-02-10T19:07:16.268Z,5.80
2019-02-10T19:12:38.050Z,5.80
2019-02-10T19:15:10.177Z,5.80
2019-02-10T19:17:52.566Z,5.80
2019-02-10T19:20:31.931Z,5.80
2019-02-10T19:23:02.127Z,5.80
2019-02-10T19:25:41.128Z,5.80
2019-02-10T19:28:11.224Z,5.70
2019-02-10T19:33:36.712Z,5.60
2019-02-10T19:36:06.905Z,5.60
2019-02-10T19:38:44.540Z,5.50
2019-02-10T19:41:17.853Z,5.50
2019-02-10T19:44:02.990Z,5.40
2019-02-10T19:46:35.802Z,5.40
2019-02-10T19:49:15.010Z,5.50
2019-02-10T19:51:48.117Z,5.50
2019-02-10T19:54:21.176Z,5.60
2019-02-10T19:57:08.086Z,5.70
2019-02-10T19:59:44.098Z,5.80
2019-02-10T20:02:23.411Z,5.80
2019-02-10T20:05:08.597Z,5.80
2019-02-10T20:07:38.723Z,5.70
2019-02-10T20:10:10.358Z,5.60
2019-02-10T20:12:40.419Z,5.60
2019-02-10T20:15:11.737Z,5.60
2019-02-10T20:17:41.794Z,5.50
2019-02-10T20:20:14.812Z,5.50
2019-02-10T20:22:44.862Z,5.60
2019-02-10T20:25:15.469Z,5.60
2019-02-10T20:27:54.910Z,5.60
2019-02-10T20:30:43.851Z,5.70
2019-02-10T20:33:32.716Z,5.80
2019-02-10T20:36:02.826Z,5.80
2019-02-10T20:38:41.778Z,5.80
2019-02-10T20:41:12.069Z,5.80
2019-02-10T20:43:45.479Z,5.90
2019-02-10T20:46:15.608Z,5.80
2019-02-10T20:48:48.166Z,5.80
2019-02-10T20:51:21.355Z,5.90
2019-02-10T20:53:57.134Z,5.90
2019-02-10T20:56:30.158Z,6.00
2019-02-10T20:59:00.272Z,6.00
2019-02-10T21:01:42.745Z,6.00
2019-02-10T21:04:15.637Z,6.10
2019-02-10T21:06:46.252Z,6.10
2019-02-10T21:09:16.671Z,6.20
2019-02-10T21:11:46.721Z,6.20
2019-02-10T21:14:20.069Z,6.10
2019-02-10T21:16:50.121Z,6.10
2019-02-10T21:19:20.516Z,6.10
2019-02-10T21:21:50.597Z,6.00
2019-02-10T21:24:24.134Z,6.00
2019-02-10T21:27:00.595Z,5.90
2019-02-10T21:29:47.266Z,5.90
2019-02-10T21:32:34.512Z,5.80
2019-02-10T21:35:04.609Z,5.80
2019-02-10T21:37:44.185Z,5.70
2019-02-10T21:40:20.302Z,5.80
2019-02-10T21:42:50.354Z,5.70
2019-02-10T21:45:26.513Z,5.70
2019-02-10T21:47:56.855Z,5.80
2019-02-10T21:50:25.632Z,5.80
2019-02-10T21:52:54.347Z,5.90
2019-02-10T21:55:22.902Z,5.90
2019-02-10T21:57:51.371Z,5.90
2019-02-10T22:00:20.263Z,5.90
2019-02-10T22:02:49.230Z,5.80
2019-02-10T22:05:17.887Z,5.80
2019-02-10T22:07:46.339Z,5.80
2019-02-10T22:10:15.109Z,5.70
2019-02-10T22:12:43.628Z,5.70
2019-02-10T22:15:12.134Z,5.60
2019-02-10T22:17:40.521Z,5.50
2019-02-10T22:20:11.869Z,5.50
2019-02-10T22:22:40.800Z,5.40
2019-02-10T22:25:12.957Z,5.50
2019-02-10T22:27:41.366Z,5.50
2019-02-10T22:30:15.722Z,5.50
2019-02-10T22:32:44.205Z,5.50
2019-02-10T22:35:13.123Z,5.40
2019-02-10T22:37:41.912Z,5.40
2019-02-10T22:40:12.237Z,5.40
2019-02-10T22:42:45.886Z,5.30
2019-02-10T22:45:12.588Z,5.40
2019-02-10T22:47:40.994Z,5.30
2019-02-10T22:50:12.248Z,5.30
2019-02-10T22:52:40.650Z,5.30
2019-02-10T22:55:09.874Z,5.30
2019-02-10T22:57:38.551Z,5.20
2019-02-10T23:00:12.163Z,5.10
2019-02-10T23:02:41.046Z,5.10
2019-02-10T23:05:09.524Z,5.00
2019-02-10T23:07:38.233Z,5.10
2019-02-10T23:10:06.839Z,5.10
2019-02-10T23:12:35.587Z,5.10
2019-02-10T23:15:05.447Z,5.10
2019-02-10T23:17:33.879Z,5.10
2019-02-10T23:20:02.568Z,5.20
2019-02-10T23:22:31.383Z,5.30
2019-02-10T23:25:00.035Z,5.40
2019-02-10T23:27:28.720Z,5.40
2019-02-10T23:29:57.420Z,5.40
2019-02-10T23:32:26.205Z,5.50
2019-02-10T23:34:55.120Z,5.60
2019-02-10T23:37:23.564Z,5.70
2019-02-10T23:39:51.979Z,5.70
2019-02-10T23:42:20.731Z,5.80
2019-02-10T23:44:49.142Z,5.90
2019-02-10T23:47:17.578Z,5.90
2019-02-10T23:49:45.981Z,6.00
2019-02-10T23:52:14.788Z,6.00
2019-02-10T23:54:43.562Z,6.10
2019-02-10T23:57:11.994Z,6.10
2019-02-10T23:59:40.397Z,6.20
